Rule, Texas
Current Conditions -  °F | °C
As of 12:58 AM on Sunday 26 Oct 2014 (Local Time) from KDYS Reporting Station
Clear Clear  
Wind Chill: 66°   Ceiling: Unl
Heat Index: 66°   Visibility: 10mi
Dew Point: 51°   Wind: 9mph
Humidity: 58%   Direction: 190°S
Pressure: 30.05"   Gusts: NA
Location:  33.18°N, 99.89°W
Report Text: KDYS 260558Z AUTO 19008KT 10SM CLR 19/10 A3005 RMK AO2 SLP134 T01870104 10260 20164 403180164 58006 $
Loading
Personal Weather Stations






























Interactive Weather Map
Tropical Storm Tracking
New forecast layout! Learn more

10-Day Weather Forecast

Advertisements
Track Severe Weather on mobile